createdAt,value
2022-09-26T00:00:22.511Z,6.44
2022-09-26T00:01:25.122Z,6.16
2022-09-26T00:02:27.535Z,6.22
2022-09-26T00:03:29.854Z,6.00
2022-09-26T00:04:33.068Z,5.86
2022-09-26T00:05:35.899Z,5.61
2022-09-26T00:06:38.564Z,6.18
2022-09-26T00:07:41.128Z,5.99
2022-09-26T00:08:43.726Z,6.09
2022-09-26T00:09:46.293Z,6.07
2022-09-26T00:10:48.895Z,5.82
2022-09-26T00:11:51.570Z,6.01
2022-09-26T00:12:54.121Z,5.81
2022-09-26T00:13:56.571Z,5.59
2022-09-26T00:15:01.417Z,5.89
2022-09-26T00:16:04.024Z,5.51
2022-09-26T00:17:06.448Z,5.42
2022-09-26T00:18:08.934Z,5.50
2022-09-26T00:19:11.346Z,5.37
2022-09-26T00:20:13.729Z,5.23
2022-09-26T00:21:16.191Z,4.87
2022-09-26T00:22:18.553Z,5.51
2022-09-26T00:23:21.125Z,5.26
2022-09-26T00:24:23.598Z,5.60
2022-09-26T00:25:26.156Z,5.32
2022-09-26T00:26:28.813Z,5.35
2022-09-26T00:27:31.751Z,4.99
2022-09-26T00:28:34.274Z,5.63
2022-09-26T00:29:36.774Z,5.45
2022-09-26T00:30:39.429Z,5.47
2022-09-26T00:31:42.287Z,5.37
2022-09-26T00:32:54.038Z,5.49
2022-09-26T00:33:57.342Z,5.33
2022-09-26T00:35:00.515Z,5.71
2022-09-26T00:36:03.915Z,5.95
2022-09-26T00:37:07.274Z,5.51
2022-09-26T00:38:10.576Z,5.65
2022-09-26T00:39:13.844Z,5.64
2022-09-26T00:40:16.797Z,5.66
2022-09-26T00:41:19.922Z,5.73
2022-09-26T00:42:23.920Z,5.54
2022-09-26T00:43:26.580Z,5.14
2022-09-26T00:44:29.264Z,5.98
2022-09-26T00:45:32.520Z,5.88
2022-09-26T00:46:35.529Z,6.37
2022-09-26T00:47:38.695Z,6.65
2022-09-26T00:48:42.009Z,5.65
2022-09-26T00:49:45.058Z,5.92
2022-09-26T00:50:47.829Z,5.80
2022-09-26T00:51:51.010Z,6.16
2022-09-26T00:52:54.009Z,6.03
2022-09-26T00:53:56.854Z,5.45
2022-09-26T00:54:59.737Z,5.58
2022-09-26T00:56:02.710Z,5.92
2022-09-26T00:57:05.279Z,6.13
2022-09-26T00:58:08.491Z,6.01
2022-09-26T00:59:11.937Z,5.52
2022-09-26T01:00:14.588Z,5.95
2022-09-26T01:01:17.645Z,5.82
2022-09-26T01:02:20.846Z,6.25
2022-09-26T01:03:24.169Z,6.14
2022-09-26T01:04:27.264Z,6.14
2022-09-26T01:05:30.322Z,6.06
2022-09-26T01:06:33.191Z,5.72
2022-09-26T01:07:35.964Z,5.90
2022-09-26T01:08:39.054Z,6.62
2022-09-26T01:09:42.227Z,6.12
2022-09-26T01:10:44.804Z,6.16
2022-09-26T01:11:47.667Z,6.12
2022-09-26T01:12:50.379Z,6.05
2022-09-26T01:13:53.632Z,5.50
2022-09-26T01:14:56.513Z,5.47
2022-09-26T01:15:59.403Z,5.81
2022-09-26T01:17:02.587Z,5.46
2022-09-26T01:18:05.438Z,5.87
2022-09-26T01:19:08.263Z,5.78
2022-09-26T01:20:11.084Z,5.33
2022-09-26T01:21:13.859Z,5.51
2022-09-26T01:22:17.160Z,5.18
2022-09-26T01:23:20.647Z,5.25
2022-09-26T01:24:23.613Z,5.44
2022-09-26T01:25:26.793Z,4.98
2022-09-26T01:26:30.485Z,4.99
2022-09-26T01:27:33.497Z,4.98
2022-09-26T01:28:36.353Z,4.79
2022-09-26T01:29:38.805Z,5.03
2022-09-26T01:30:42.039Z,4.87
2022-09-26T01:31:46.681Z,4.67
2022-09-26T01:32:49.761Z,4.53
2022-09-26T01:33:52.952Z,4.55
2022-09-26T01:34:56.872Z,4.37
2022-09-26T01:36:00.585Z,4.65
2022-09-26T01:37:03.549Z,4.80
2022-09-26T01:38:12.004Z,4.28
2022-09-26T01:39:15.698Z,4.31
2022-09-26T01:40:23.000Z,4.35
2022-09-26T01:41:26.370Z,4.44
2022-09-26T01:42:30.188Z,4.44
2022-09-26T01:43:39.510Z,4.59
2022-09-26T01:44:42.286Z,4.73
2022-09-26T01:45:47.091Z,4.95
2022-09-26T01:46:55.006Z,4.41
2022-09-26T01:48:04.070Z,4.00
2022-09-26T01:49:06.771Z,4.01
2022-09-26T01:50:10.264Z,4.10
2022-09-26T01:51:13.647Z,4.30
2022-09-26T01:52:17.447Z,3.85
2022-09-26T01:53:20.727Z,3.77
2022-09-26T01:54:25.826Z,4.00
2022-09-26T01:55:28.733Z,4.10
2022-09-26T01:56:31.914Z,3.33
2022-09-26T01:57:35.604Z,3.43
2022-09-26T01:58:39.110Z,2.89
2022-09-26T01:59:51.746Z,3.37
2022-09-26T02:00:55.266Z,3.19
2022-09-26T02:01:59.262Z,2.71
2022-09-26T02:03:03.463Z,2.84
2022-09-26T02:05:31.169Z,3.05
2022-09-26T02:06:40.594Z,3.13
2022-09-26T02:07:44.806Z,3.07
2022-09-26T02:08:49.113Z,2.61
2022-09-26T02:09:52.488Z,3.21
2022-09-26T02:10:56.090Z,3.21
2022-09-26T02:12:11.386Z,3.09
2022-09-26T02:13:14.738Z,2.86
2022-09-26T02:14:18.628Z,2.79
2022-09-26T02:15:23.173Z,2.86
2022-09-26T02:16:27.108Z,2.75
2022-09-26T02:17:31.151Z,2.76
2022-09-26T02:18:34.879Z,2.60
2022-09-26T02:19:41.505Z,2.59
2022-09-26T02:20:45.618Z,2.66
2022-09-26T02:23:30.215Z,2.88
2022-09-26T02:24:36.989Z,2.70
2022-09-26T02:25:39.914Z,2.78
2022-09-26T02:26:44.021Z,2.86
2022-09-26T02:27:46.991Z,2.67
2022-09-26T02:28:49.967Z,2.79
2022-09-26T02:32:39.088Z,2.94
2022-09-26T02:36:25.606Z,2.76
2022-09-26T02:37:29.555Z,2.47
2022-09-26T02:50:36.527Z,2.50
2022-09-26T02:51:40.029Z,2.83
2022-09-26T02:52:44.021Z,2.81
2022-09-26T02:53:51.666Z,2.80
2022-09-26T02:54:55.682Z,2.59
2022-09-26T02:56:06.926Z,2.64
2022-09-26T02:57:15.453Z,2.48
2022-09-26T03:02:38.740Z,2.60
2022-09-26T03:08:58.440Z,2.79
2022-09-26T03:15:39.426Z,2.98
2022-09-26T03:16:42.927Z,3.05
2022-09-26T03:17:46.492Z,2.81
2022-09-26T03:18:57.499Z,2.79
2022-09-26T03:20:05.621Z,2.81
2022-09-26T03:21:19.330Z,3.08
2022-09-26T03:22:22.866Z,2.75
2022-09-26T03:23:39.419Z,2.65
2022-09-26T03:24:37.216Z,2.71
2022-09-26T03:27:04.737Z,3.05
2022-09-26T03:29:38.587Z,2.93
2022-09-26T03:30:51.134Z,2.61
2022-09-26T03:31:54.241Z,2.52
2022-09-26T03:33:02.192Z,2.58
2022-09-26T03:34:10.569Z,2.49
2022-09-26T03:36:44.626Z,2.77
2022-09-26T03:37:54.094Z,2.78
2022-09-26T03:38:59.026Z,2.61
2022-09-26T03:40:50.769Z,2.54
2022-09-26T03:41:29.680Z,2.57
2022-09-26T03:42:44.506Z,3.21
2022-09-26T03:44:24.641Z,2.84
2022-09-26T03:45:01.586Z,2.85
2022-09-26T03:46:08.477Z,2.76
2022-09-26T03:47:12.781Z,2.46
2022-09-26T03:48:16.288Z,2.77
2022-09-26T03:49:31.054Z,2.53
2022-09-26T03:52:00.955Z,3.02
2022-09-26T03:53:04.423Z,2.92
2022-09-26T03:54:08.029Z,2.70
2022-09-26T03:55:11.623Z,2.86
2022-09-26T03:56:15.004Z,2.61
2022-09-26T03:57:18.380Z,3.05
2022-09-26T03:58:21.899Z,2.70
2022-09-26T03:59:29.831Z,2.52
2022-09-26T04:01:53.581Z,2.49
2022-09-26T04:02:56.924Z,2.54
2022-09-26T04:04:01.850Z,2.32
2022-09-26T04:05:07.180Z,2.41
2022-09-26T04:06:11.081Z,2.45
2022-09-26T04:07:16.724Z,2.56
2022-09-26T04:08:19.996Z,2.41
2022-09-26T04:09:23.785Z,2.21
2022-09-26T04:10:38.946Z,2.55
2022-09-26T04:11:41.520Z,2.21
2022-09-26T04:12:50.831Z,2.42
2022-09-26T04:13:54.503Z,2.25
2022-09-26T04:17:44.564Z,2.81
2022-09-26T04:18:53.450Z,2.83
2022-09-26T04:19:56.624Z,2.87
2022-09-26T04:21:09.780Z,2.85
2022-09-26T04:22:09.973Z,2.77
2022-09-26T04:23:15.805Z,2.64
2022-09-26T04:24:32.070Z,2.70
2022-09-26T04:25:38.065Z,2.39
2022-09-26T04:26:42.884Z,2.42
2022-09-26T04:27:47.971Z,2.49
2022-09-26T04:28:51.278Z,2.06
2022-09-26T04:29:54.641Z,1.99
2022-09-26T04:44:09.089Z,2.26
2022-09-26T04:45:11.959Z,2.20
2022-09-26T04:46:22.831Z,2.05
2022-09-26T04:47:25.467Z,2.06
2022-09-26T04:48:31.983Z,2.05
2022-09-26T04:49:38.339Z,2.31
2022-09-26T04:50:41.298Z,2.16
2022-09-26T04:51:44.171Z,2.21
2022-09-26T04:52:47.560Z,1.96
2022-09-26T04:53:51.663Z,2.00
2022-09-26T04:54:54.931Z,2.19
2022-09-26T04:56:01.325Z,2.03
2022-09-26T04:58:24.975Z,1.92
2022-09-26T04:59:32.555Z,2.05
2022-09-26T05:00:40.901Z,2.03
2022-09-26T05:03:04.994Z,2.15
2022-09-26T05:05:33.917Z,2.17
2022-09-26T05:06:39.782Z,2.09
2022-09-26T05:07:43.973Z,1.98
2022-09-26T05:08:47.153Z,2.11
2022-09-26T05:09:59.601Z,2.02
2022-09-26T05:11:19.113Z,2.04
2022-09-26T05:12:22.615Z,2.19
2022-09-26T05:14:48.243Z,2.00
2022-09-26T05:15:51.556Z,1.96
2022-09-26T05:16:56.020Z,1.82
2022-09-26T05:18:02.994Z,2.07
2022-09-26T05:19:07.617Z,2.11
2022-09-26T05:20:12.231Z,1.78
2022-09-26T05:22:36.529Z,1.72
2022-09-26T05:23:44.797Z,1.75
2022-09-26T05:24:46.373Z,1.95
2022-09-26T05:32:22.150Z,1.87
2022-09-26T05:33:29.927Z,2.05
2022-09-26T05:34:35.669Z,1.89
2022-09-26T05:37:03.371Z,1.96
2022-09-26T05:38:06.930Z,2.01
2022-09-26T05:39:10.214Z,2.08
2022-09-26T05:40:13.389Z,2.29
2022-09-26T05:41:24.699Z,2.16
2022-09-26T05:42:28.983Z,2.26
2022-09-26T05:43:50.191Z,2.11
2022-09-26T05:46:20.719Z,2.13
2022-09-26T05:47:29.225Z,2.17
2022-09-26T05:48:35.060Z,2.14
2022-09-26T05:49:49.511Z,2.21
2022-09-26T05:50:52.589Z,2.19
2022-09-26T05:51:55.454Z,2.05
2022-09-26T05:52:58.739Z,2.13
2022-09-26T05:54:08.940Z,2.21
2022-09-26T05:55:14.102Z,2.46
2022-09-26T05:56:20.471Z,2.06
2022-09-26T05:57:37.860Z,2.06
2022-09-26T05:58:40.667Z,2.25
2022-09-26T05:59:53.360Z,2.07
2022-09-26T06:05:08.998Z,2.08
2022-09-26T06:06:14.618Z,2.16
2022-09-26T06:08:28.431Z,2.13
2022-09-26T06:15:50.699Z,2.04
2022-09-26T06:16:53.891Z,2.05
2022-09-26T06:17:57.485Z,2.20
2022-09-26T06:19:01.294Z,2.08
2022-09-26T06:20:05.295Z,2.25
2022-09-26T06:21:08.258Z,2.30
2022-09-26T06:22:11.565Z,2.24
2022-09-26T06:23:14.938Z,2.25
2022-09-26T06:24:17.953Z,2.25
2022-09-26T06:25:24.290Z,2.25
2022-09-26T06:43:39.977Z,2.39
2022-09-26T06:45:47.769Z,2.32
2022-09-26T06:46:59.809Z,2.52
2022-09-26T06:54:20.586Z,2.46
2022-09-26T06:55:23.483Z,2.50
2022-09-26T06:56:27.300Z,2.48
2022-09-26T06:57:35.421Z,2.69
2022-09-26T06:59:43.502Z,2.67
2022-09-26T07:00:50.470Z,2.66
2022-09-26T07:01:54.465Z,2.46
2022-09-26T07:07:35.147Z,2.64
2022-09-26T07:09:01.017Z,2.53
2022-09-26T07:09:43.954Z,2.71
2022-09-26T07:10:47.649Z,2.68
2022-09-26T07:12:13.498Z,2.99
2022-09-26T07:12:55.771Z,2.98
2022-09-26T07:18:12.736Z,2.77
2022-09-26T07:21:25.710Z,2.95
2022-09-26T07:24:40.763Z,3.04
2022-09-26T07:27:50.234Z,3.17
2022-09-26T07:28:54.927Z,3.20
2022-09-26T07:31:10.322Z,3.03
2022-09-26T07:34:19.656Z,3.11
2022-09-26T07:37:30.970Z,3.29
2022-09-26T07:39:36.486Z,2.98
2022-09-26T07:40:39.516Z,3.03
2022-09-26T07:43:19.624Z,3.09
2022-09-26T07:45:27.979Z,3.42
2022-09-26T07:46:22.455Z,3.46
2022-09-26T07:51:45.393Z,3.45
2022-09-26T07:52:52.268Z,3.19
2022-09-26T07:53:56.362Z,3.38
2022-09-26T07:55:00.776Z,3.45
2022-09-26T07:56:09.487Z,3.23
2022-09-26T07:57:17.060Z,3.51
2022-09-26T07:58:20.473Z,3.61
2022-09-26T07:59:23.942Z,3.43
2022-09-26T08:00:28.573Z,3.66
2022-09-26T08:01:32.186Z,3.41
2022-09-26T08:02:41.345Z,3.40
2022-09-26T08:03:48.749Z,3.31
2022-09-26T08:04:52.389Z,3.19
2022-09-26T08:06:06.975Z,3.21
2022-09-26T08:07:10.102Z,3.49
2022-09-26T08:08:22.312Z,3.26
2022-09-26T08:09:29.697Z,3.48
2022-09-26T08:10:33.042Z,3.48
2022-09-26T08:11:46.454Z,3.24
2022-09-26T08:12:49.863Z,3.46
2022-09-26T08:13:55.726Z,3.69
2022-09-26T08:14:59.123Z,3.71
2022-09-26T08:17:36.034Z,3.39
2022-09-26T08:20:13.342Z,3.53
2022-09-26T08:21:16.948Z,3.52
2022-09-26T08:22:20.740Z,3.41
2022-09-26T08:23:26.371Z,3.24
2022-09-26T08:24:39.104Z,3.59
2022-09-26T08:25:42.248Z,3.56
2022-09-26T08:26:46.770Z,3.55
2022-09-26T08:27:50.053Z,3.85
2022-09-26T08:28:52.979Z,4.07
2022-09-26T08:31:17.276Z,3.70
2022-09-26T08:32:32.562Z,3.76
2022-09-26T08:34:56.552Z,3.93
2022-09-26T08:35:59.953Z,3.98
2022-09-26T08:37:08.302Z,3.89
2022-09-26T08:38:13.093Z,3.81
2022-09-26T08:39:20.410Z,4.14
2022-09-26T08:40:30.881Z,4.13
2022-09-26T08:41:34.395Z,4.06
2022-09-26T08:42:44.972Z,4.15
2022-09-26T08:43:49.990Z,4.26
2022-09-26T08:47:39.246Z,3.55
2022-09-26T08:50:14.275Z,3.80
2022-09-26T08:51:30.981Z,3.98
2022-09-26T08:52:34.679Z,3.63
2022-09-26T08:53:39.602Z,3.90
2022-09-26T08:54:42.573Z,4.19
2022-09-26T08:55:46.241Z,4.05
2022-09-26T08:56:50.975Z,3.82
2022-09-26T08:57:57.045Z,4.39
2022-09-26T08:59:02.047Z,4.00
2022-09-26T09:00:16.901Z,3.89
2022-09-26T09:01:30.964Z,3.79
2022-09-26T09:02:35.155Z,4.17
2022-09-26T09:03:42.527Z,4.20
2022-09-26T09:04:50.259Z,4.05
2022-09-26T09:05:51.049Z,3.94
2022-09-26T09:06:57.807Z,3.68
2022-09-26T09:08:01.467Z,3.72
2022-09-26T09:09:04.930Z,3.85
2022-09-26T09:10:07.770Z,3.97
2022-09-26T09:11:10.867Z,3.85
2022-09-26T09:12:23.832Z,3.51
2022-09-26T09:13:24.891Z,3.74
2022-09-26T09:14:27.571Z,3.59
2022-09-26T09:15:30.764Z,3.70
2022-09-26T09:16:35.602Z,4.22
2022-09-26T09:17:40.584Z,3.59
2022-09-26T09:18:43.885Z,3.81
2022-09-26T09:19:47.445Z,3.79
2022-09-26T09:20:50.848Z,3.56
2022-09-26T09:22:05.912Z,3.65
2022-09-26T09:23:12.564Z,3.73
2022-09-26T09:24:15.752Z,3.56
2022-09-26T09:25:18.941Z,3.24
2022-09-26T09:28:36.055Z,3.68
2022-09-26T09:29:40.216Z,3.74
2022-09-26T09:30:53.700Z,4.16
2022-09-26T09:32:07.833Z,3.44
2022-09-26T09:33:13.771Z,3.35
2022-09-26T09:34:19.225Z,3.71
2022-09-26T09:35:22.284Z,3.70
2022-09-26T09:36:25.912Z,3.46
2022-09-26T09:37:30.082Z,3.55
2022-09-26T09:38:33.981Z,4.02
2022-09-26T09:39:37.174Z,4.25
2022-09-26T09:40:44.428Z,3.96
2022-09-26T09:41:47.463Z,3.79
2022-09-26T09:42:53.070Z,3.86
2022-09-26T09:43:56.166Z,3.74
2022-09-26T09:45:01.798Z,3.64
2022-09-26T09:46:05.206Z,3.49
2022-09-26T09:47:11.017Z,3.66
2022-09-26T09:48:14.212Z,3.83
2022-09-26T09:49:17.427Z,3.60
2022-09-26T09:50:21.689Z,3.75
2022-09-26T09:51:24.988Z,3.87
2022-09-26T09:52:33.786Z,3.50
2022-09-26T09:53:38.818Z,3.65
2022-09-26T09:54:45.782Z,3.52
2022-09-26T09:55:51.622Z,3.45
2022-09-26T09:56:55.125Z,3.75
2022-09-26T09:57:58.284Z,3.90
2022-09-26T09:59:01.790Z,3.50
2022-09-26T10:00:05.163Z,3.40
2022-09-26T10:01:08.260Z,3.67
2022-09-26T10:02:12.343Z,3.61
2022-09-26T10:03:15.642Z,3.48
2022-09-26T10:04:18.614Z,3.71
2022-09-26T10:05:23.440Z,3.56
2022-09-26T10:06:44.717Z,3.55
2022-09-26T10:07:35.633Z,3.76
2022-09-26T10:08:40.861Z,3.63
2022-09-26T10:09:43.733Z,3.72
2022-09-26T10:10:46.936Z,4.01
2022-09-26T10:11:52.559Z,3.62
2022-09-26T10:12:57.192Z,3.55
2022-09-26T10:16:29.006Z,3.50
2022-09-26T10:17:35.918Z,3.68
2022-09-26T10:20:06.761Z,3.90
2022-09-26T10:21:09.723Z,3.85
2022-09-26T10:27:00.858Z,3.99
2022-09-26T10:29:18.597Z,4.07
2022-09-26T10:30:35.789Z,3.87
2022-09-26T10:31:42.504Z,3.94
2022-09-26T10:32:45.444Z,3.93
2022-09-26T10:33:48.624Z,3.83
2022-09-26T10:34:57.673Z,3.44
2022-09-26T10:36:03.388Z,3.72
2022-09-26T10:37:06.993Z,3.86
2022-09-26T10:38:10.300Z,3.73
2022-09-26T10:39:13.955Z,3.39
2022-09-26T10:40:17.494Z,3.76
2022-09-26T10:41:20.771Z,3.72
2022-09-26T10:42:27.455Z,3.45
2022-09-26T10:43:33.340Z,3.79
2022-09-26T10:44:44.305Z,3.69
2022-09-26T10:47:12.784Z,4.12
2022-09-26T10:48:17.920Z,3.74
2022-09-26T10:49:21.508Z,4.01
2022-09-26T10:50:24.585Z,4.06
2022-09-26T10:51:28.786Z,3.80
2022-09-26T10:52:31.674Z,3.74
2022-09-26T10:53:34.946Z,3.84
2022-09-26T10:54:37.767Z,3.97
2022-09-26T10:55:40.808Z,4.00
2022-09-26T10:56:46.443Z,3.68
2022-09-26T10:57:53.389Z,3.91
2022-09-26T10:58:56.705Z,3.91
2022-09-26T10:59:59.764Z,3.91
2022-09-26T11:01:02.538Z,3.91
2022-09-26T11:02:06.036Z,3.58
2022-09-26T11:03:09.574Z,3.87
2022-09-26T11:04:13.102Z,3.92
2022-09-26T11:05:19.989Z,3.80
2022-09-26T11:06:24.049Z,3.65
2022-09-26T11:07:27.261Z,3.81
2022-09-26T11:10:03.583Z,3.82
2022-09-26T11:11:07.449Z,4.01
2022-09-26T11:12:13.577Z,3.96
2022-09-26T11:13:20.534Z,3.92
2022-09-26T11:14:27.843Z,3.73
2022-09-26T11:15:29.065Z,3.58
2022-09-26T11:16:37.069Z,3.66
2022-09-26T11:17:42.610Z,3.54
2022-09-26T11:18:45.882Z,3.65
2022-09-26T11:19:54.501Z,3.72
2022-09-26T11:20:53.574Z,3.89
2022-09-26T11:21:56.772Z,3.66
2022-09-26T11:23:01.372Z,3.43
2022-09-26T11:24:05.223Z,3.47
2022-09-26T11:25:08.839Z,3.61
2022-09-26T11:26:17.161Z,3.62
2022-09-26T11:27:20.569Z,3.66
2022-09-26T11:28:23.640Z,3.68
2022-09-26T11:29:27.240Z,4.00
2022-09-26T11:30:32.263Z,4.08
2022-09-26T11:31:36.031Z,3.88
2022-09-26T11:32:38.958Z,3.80
2022-09-26T11:33:46.503Z,3.60
2022-09-26T11:34:57.679Z,3.51
2022-09-26T11:36:00.989Z,3.34
2022-09-26T11:37:07.222Z,3.36
2022-09-26T11:38:10.808Z,3.62
2022-09-26T11:39:13.932Z,3.34
2022-09-26T11:40:17.950Z,3.42
2022-09-26T11:41:20.767Z,3.90
2022-09-26T11:42:25.169Z,3.86
2022-09-26T11:43:28.869Z,3.72
2022-09-26T11:44:32.046Z,3.75
2022-09-26T11:45:46.612Z,3.75
2022-09-26T11:46:46.021Z,4.03
2022-09-26T11:47:49.270Z,4.15
2022-09-26T11:48:52.863Z,3.81
2022-09-26T11:49:55.944Z,4.08
2022-09-26T11:51:01.699Z,3.98
2022-09-26T11:52:08.148Z,3.79
2022-09-26T11:53:11.010Z,3.62
2022-09-26T11:54:17.407Z,3.72
2022-09-26T11:55:20.670Z,3.64
2022-09-26T11:56:24.061Z,3.58
2022-09-26T11:58:48.227Z,3.79
2022-09-26T11:59:51.204Z,3.86
2022-09-26T12:00:54.526Z,3.88
2022-09-26T12:01:58.412Z,3.72
2022-09-26T12:03:02.058Z,4.08
2022-09-26T12:04:05.854Z,3.66
2022-09-26T12:05:09.161Z,3.75
2022-09-26T12:06:12.250Z,3.80
2022-09-26T12:07:15.309Z,3.60
2022-09-26T12:08:18.701Z,3.62
2022-09-26T12:09:21.601Z,3.88
2022-09-26T12:10:24.567Z,3.93
2022-09-26T12:11:28.184Z,3.84
2022-09-26T12:12:31.747Z,3.62
2022-09-26T12:13:34.825Z,3.97
2022-09-26T12:14:37.901Z,3.47
2022-09-26T12:15:40.978Z,3.91
2022-09-26T12:16:43.550Z,4.13
2022-09-26T12:17:47.452Z,3.85
2022-09-26T12:18:50.441Z,3.92
2022-09-26T12:19:53.396Z,3.67
2022-09-26T12:20:57.706Z,3.72
2022-09-26T12:22:00.819Z,3.94
2022-09-26T12:23:04.068Z,3.93
2022-09-26T12:24:07.807Z,4.05
2022-09-26T12:25:19.914Z,4.19
2022-09-26T12:26:19.445Z,3.97
2022-09-26T12:27:22.226Z,4.02
2022-09-26T12:28:25.299Z,3.82
2022-09-26T12:29:34.869Z,3.44
2022-09-26T12:30:38.122Z,3.81
2022-09-26T12:31:40.879Z,3.85
2022-09-26T12:32:43.773Z,3.88
2022-09-26T12:33:47.044Z,4.05
2022-09-26T12:34:50.445Z,3.71
2022-09-26T12:35:53.632Z,3.54
2022-09-26T12:37:00.078Z,4.32
2022-09-26T12:38:03.250Z,4.04
2022-09-26T12:39:06.306Z,3.72
2022-09-26T12:40:09.348Z,4.08
2022-09-26T12:41:13.324Z,3.97
2022-09-26T12:42:16.099Z,3.56
2022-09-26T12:43:19.615Z,3.92
2022-09-26T12:44:22.778Z,4.16
2022-09-26T12:45:27.183Z,4.32
2022-09-26T12:46:30.504Z,3.89
2022-09-26T12:47:33.827Z,3.89
2022-09-26T12:48:36.807Z,4.21
2022-09-26T12:49:39.891Z,4.17
2022-09-26T12:50:44.110Z,3.95
2022-09-26T12:51:53.636Z,3.83
2022-09-26T12:53:00.370Z,4.01
2022-09-26T12:54:04.392Z,4.06
2022-09-26T12:55:07.378Z,4.21
2022-09-26T12:56:13.767Z,3.98
2022-09-26T12:57:16.511Z,4.00
2022-09-26T12:58:20.099Z,3.95
2022-09-26T12:59:25.638Z,4.21
2022-09-26T13:00:34.258Z,4.33
2022-09-26T13:01:38.481Z,4.09
2022-09-26T13:02:41.609Z,4.26
2022-09-26T13:03:45.233Z,4.22
2022-09-26T13:04:50.849Z,4.26
2022-09-26T13:05:53.633Z,4.06
2022-09-26T13:07:17.739Z,4.08
2022-09-26T13:08:01.942Z,4.24
2022-09-26T13:09:04.926Z,3.93
2022-09-26T13:10:08.279Z,3.90
2022-09-26T13:11:11.894Z,4.47
2022-09-26T13:12:15.194Z,4.27
2022-09-26T13:13:17.954Z,4.16
2022-09-26T13:14:20.621Z,4.38
2022-09-26T13:15:24.349Z,4.25
2022-09-26T13:16:27.646Z,4.39
2022-09-26T13:17:33.541Z,4.21
2022-09-26T13:18:36.742Z,4.34
2022-09-26T13:19:40.121Z,4.43
2022-09-26T13:20:43.707Z,4.31
2022-09-26T13:21:46.895Z,3.93
2022-09-26T13:22:49.978Z,4.33
2022-09-26T13:23:53.058Z,4.75
2022-09-26T13:24:56.426Z,4.82
2022-09-26T13:25:59.504Z,4.54
2022-09-26T13:27:02.914Z,4.76
2022-09-26T13:28:05.772Z,4.45
2022-09-26T13:29:23.277Z,4.70
2022-09-26T13:30:14.017Z,4.67
2022-09-26T13:31:17.814Z,4.05
2022-09-26T13:32:21.065Z,4.14
2022-09-26T13:33:24.059Z,4.32
2022-09-26T13:34:27.120Z,4.54
2022-09-26T13:35:37.361Z,4.32
2022-09-26T13:36:40.661Z,4.12
2022-09-26T13:37:43.670Z,4.25
2022-09-26T13:38:46.780Z,4.56
2022-09-26T13:39:50.321Z,4.93
2022-09-26T13:40:53.312Z,5.18
2022-09-26T13:41:56.257Z,4.55
2022-09-26T13:43:02.949Z,4.74
2022-09-26T13:44:04.562Z,4.84
2022-09-26T13:45:07.644Z,4.71
2022-09-26T13:46:11.111Z,4.88
2022-09-26T13:47:18.306Z,5.04
2022-09-26T13:48:22.509Z,4.81
2022-09-26T13:49:25.693Z,4.61
2022-09-26T13:50:28.661Z,5.02
2022-09-26T13:51:31.853Z,5.03
2022-09-26T13:52:35.685Z,4.88
2022-09-26T13:53:39.071Z,4.86
2022-09-26T13:54:44.680Z,4.77
2022-09-26T13:55:48.282Z,4.61
2022-09-26T13:56:51.558Z,4.74
2022-09-26T13:57:55.765Z,4.64
2022-09-26T13:58:58.959Z,4.79
2022-09-26T14:00:02.339Z,4.63
2022-09-26T14:01:05.609Z,4.65
2022-09-26T14:02:08.712Z,5.49
2022-09-26T14:03:14.645Z,5.19
2022-09-26T14:04:18.440Z,5.29
2022-09-26T14:05:21.409Z,4.91
2022-09-26T14:06:29.018Z,5.27
2022-09-26T14:07:32.089Z,5.29
2022-09-26T14:08:35.058Z,5.17
2022-09-26T14:09:38.235Z,4.93
2022-09-26T14:10:41.531Z,5.24
2022-09-26T14:11:45.615Z,5.29
2022-09-26T14:12:49.524Z,5.33
2022-09-26T14:13:52.908Z,5.89
2022-09-26T14:14:56.324Z,5.23
2022-09-26T14:15:59.771Z,5.46
2022-09-26T14:17:03.071Z,5.27
2022-09-26T14:18:05.938Z,5.33
2022-09-26T14:19:09.533Z,5.07
2022-09-26T14:20:13.121Z,5.64
2022-09-26T14:21:16.733Z,5.72
2022-09-26T14:22:19.805Z,5.74
2022-09-26T14:23:23.383Z,6.61
2022-09-26T14:24:26.984Z,5.87
2022-09-26T14:25:29.847Z,6.22
2022-09-26T14:26:33.347Z,6.34
2022-09-26T14:27:36.829Z,6.21
2022-09-26T14:28:40.008Z,6.48
2022-09-26T14:29:43.607Z,6.35
2022-09-26T14:30:47.015Z,6.14
2022-09-26T14:31:53.976Z,5.76
2022-09-26T14:32:57.337Z,5.89
2022-09-26T14:34:00.656Z,5.93
2022-09-26T14:35:03.826Z,6.22
2022-09-26T14:36:11.001Z,5.95
2022-09-26T14:37:14.476Z,6.19
2022-09-26T14:38:18.481Z,6.30
2022-09-26T14:39:21.183Z,6.34
2022-09-26T14:40:24.419Z,5.75
2022-09-26T14:41:30.899Z,6.16
2022-09-26T14:42:34.176Z,6.22
2022-09-26T14:43:38.174Z,6.04
2022-09-26T14:44:41.252Z,5.59
2022-09-26T14:45:47.714Z,5.50
2022-09-26T14:46:50.991Z,6.39
2022-09-26T14:47:54.390Z,6.76
2022-09-26T14:48:57.976Z,5.86
2022-09-26T14:50:11.491Z,5.70
2022-09-26T14:51:14.379Z,5.60
2022-09-26T14:52:17.673Z,6.59
2022-09-26T14:53:20.645Z,6.24
2022-09-26T14:54:25.152Z,6.48
2022-09-26T14:55:28.322Z,6.28
2022-09-26T14:56:31.326Z,6.16
2022-09-26T14:57:35.307Z,6.60
2022-09-26T14:58:40.951Z,6.65
2022-09-26T14:59:44.030Z,6.55
2022-09-26T15:00:48.436Z,6.72
2022-09-26T15:01:51.586Z,6.70
2022-09-26T15:10:23.004Z,6.30
2022-09-26T15:11:29.479Z,5.64
2022-09-26T15:12:32.563Z,5.76
2022-09-26T15:13:36.286Z,5.34
2022-09-26T15:15:00.052Z,5.89
2022-09-26T15:17:21.839Z,5.89
2022-09-26T15:18:29.545Z,6.32
2022-09-26T15:19:34.484Z,6.01
2022-09-26T15:20:39.295Z,6.16
2022-09-26T15:21:46.383Z,6.55
2022-09-26T15:22:57.820Z,6.96
2022-09-26T15:24:10.951Z,6.64
2022-09-26T15:25:13.761Z,6.66
2022-09-26T15:26:18.021Z,6.79
2022-09-26T15:27:21.202Z,7.36
2022-09-26T15:28:24.167Z,6.78
2022-09-26T15:29:27.037Z,7.69
2022-09-26T15:30:30.542Z,7.81
2022-09-26T15:31:33.838Z,7.57
2022-09-26T15:32:36.896Z,7.42
2022-09-26T15:33:40.074Z,6.88
2022-09-26T15:34:43.591Z,6.47
2022-09-26T15:35:48.092Z,6.89
2022-09-26T15:36:52.807Z,7.83
2022-09-26T15:37:55.869Z,8.94
2022-09-26T15:39:03.259Z,7.67
2022-09-26T15:40:06.750Z,7.18
2022-09-26T15:41:11.885Z,7.87
2022-09-26T15:42:15.164Z,7.81
2022-09-26T15:43:18.852Z,7.89
2022-09-26T15:44:22.140Z,7.55
2022-09-26T15:45:25.420Z,7.93
2022-09-26T15:46:29.186Z,7.35
2022-09-26T15:47:33.125Z,7.16
2022-09-26T15:48:36.313Z,6.84
2022-09-26T15:49:40.204Z,6.22
2022-09-26T15:50:44.921Z,6.26
2022-09-26T15:51:47.896Z,7.90
2022-09-26T15:52:52.001Z,7.45
2022-09-26T15:53:55.089Z,7.58
2022-09-26T15:54:57.942Z,7.77
2022-09-26T15:56:00.924Z,5.72
2022-09-26T15:57:04.107Z,5.84
2022-09-26T15:58:06.875Z,5.92
2022-09-26T15:59:10.169Z,6.10
2022-09-26T16:00:13.343Z,6.45
2022-09-26T16:01:16.210Z,6.81
2022-09-26T16:02:20.184Z,7.36
2022-09-26T16:03:24.233Z,7.45
2022-09-26T16:04:27.506Z,7.47
2022-09-26T16:05:31.822Z,8.01
2022-09-26T16:06:35.492Z,8.60
2022-09-26T16:07:41.577Z,9.83
2022-09-26T16:08:44.939Z,9.81
2022-09-26T16:09:49.157Z,10.13
2022-09-26T16:10:52.224Z,9.41
2022-09-26T16:11:56.433Z,8.88
2022-09-26T16:12:59.089Z,10.03
2022-09-26T16:14:02.389Z,10.32
2022-09-26T16:15:06.794Z,9.96
2022-09-26T16:16:09.637Z,9.85
2022-09-26T16:17:12.657Z,9.28
2022-09-26T16:18:15.941Z,8.52
2022-09-26T16:19:19.230Z,7.18
2022-09-26T16:20:22.193Z,6.92
2022-09-26T16:21:24.965Z,7.62
2022-09-26T16:22:29.420Z,6.42
2022-09-26T16:23:32.142Z,7.54
2022-09-26T16:24:35.350Z,7.47
2022-09-26T16:25:38.318Z,7.41
2022-09-26T16:26:40.988Z,8.18
2022-09-26T16:27:43.539Z,7.75
2022-09-26T16:28:46.426Z,7.19
2022-09-26T16:29:49.700Z,7.68
2022-09-26T16:30:53.185Z,9.61
2022-09-26T16:31:56.480Z,7.59
2022-09-26T16:33:00.090Z,6.98
2022-09-26T16:34:03.259Z,6.06
2022-09-26T16:35:06.749Z,6.32
2022-09-26T16:36:10.023Z,7.08
2022-09-26T16:37:13.223Z,7.16
2022-09-26T16:38:16.810Z,7.29
2022-09-26T16:39:20.900Z,7.49
2022-09-26T16:40:23.625Z,8.07
2022-09-26T16:41:49.058Z,7.42
2022-09-26T16:42:31.376Z,8.84
2022-09-26T16:43:35.180Z,8.70
2022-09-26T16:44:38.175Z,7.65
2022-09-26T16:45:41.744Z,7.62
2022-09-26T16:46:45.065Z,7.75
2022-09-26T16:47:48.706Z,8.88
2022-09-26T16:48:52.109Z,9.37
2022-09-26T16:49:55.073Z,9.50
2022-09-26T16:50:58.158Z,9.61
2022-09-26T16:52:01.128Z,10.05
2022-09-26T16:53:04.308Z,9.24
2022-09-26T16:54:07.376Z,8.75
2022-09-26T16:55:10.472Z,8.67
2022-09-26T16:56:13.965Z,10.36
2022-09-26T16:57:17.134Z,8.33
2022-09-26T16:58:25.964Z,8.68
2022-09-26T16:59:28.665Z,8.27
2022-09-26T17:00:31.606Z,8.48
2022-09-26T17:01:34.659Z,8.95
2022-09-26T17:02:38.113Z,9.51
2022-09-26T17:03:41.982Z,8.62
2022-09-26T17:04:45.148Z,9.38
2022-09-26T17:05:49.567Z,10.25
2022-09-26T17:06:52.555Z,9.79
2022-09-26T17:07:55.608Z,9.85
2022-09-26T17:08:58.823Z,9.94
2022-09-26T17:10:01.776Z,9.20
2022-09-26T17:11:06.388Z,8.70
2022-09-26T17:12:09.579Z,8.16
2022-09-26T17:13:12.761Z,8.27
2022-09-26T17:14:15.592Z,9.39
2022-09-26T17:15:19.012Z,9.53